< < Back
Terminal Aerodrome Forecast


Current Version              Previous Versions:   1  2  3  4  5  6  7  8  9  

Terminal Aerodrome Forecast

532
FTUS42 KGSP 231127
TAFAVL
TAF
KAVL 231127Z 2312/2412 16005KT P6SM -RA OVC014
     FM231800 16011KT 4SM +RA OVC014 WS020/13040KT
     FM232200 14011KT 2SM +SHRA BR OVC005
     FM240400 16009KT 2SM RA BR BKN009 OVC015 WS020/20045KT
     FM240600 17010KT 6SM -RA BR BKN009 OVC015 WS020/21045KT=



Latest METAR

571
SAUS70 KWBC 240400
MTRAVL
METAR KAVL 240354Z AUTO 19005G15KT 10SM OVC013 12/11 A2972 RMK AO2
RAB19E48 SLP059 P0001 T01220106


USA.gov is the U.S. government's official web portal to all federal, state and local government web resources and services.